sensor_id;sensor_type;location;lat;lon;timestamp;pressure;altitude;pressure_sealevel;temperature;humidity
54546;BME280;40444;45.184;9.850;2022-08-19T00:01:59;100261.06;;;21.25;100.00
54546;BME280;40444;45.184;9.850;2022-08-19T00:04:31;100242.84;;;21.26;100.00
54546;BME280;40444;45.184;9.850;2022-08-19T00:07:01;100244.28;;;21.28;100.00
54546;BME280;40444;45.184;9.850;2022-08-19T00:09:31;100244.28;;;21.28;100.00
54546;BME280;40444;45.184;9.850;2022-08-19T00:12:00;100248.69;;;21.29;100.00
54546;BME280;40444;45.184;9.850;2022-08-19T00:14:29;100236.78;;;21.24;100.00
54546;BME280;40444;45.184;9.850;2022-08-19T00:17:00;100228.00;;;21.15;100.00
54546;BME280;40444;45.184;9.850;2022-08-19T00:19:30;100208.56;;;21.05;100.00
54546;BME280;40444;45.184;9.850;2022-08-19T00:21:59;100212.16;;;20.99;100.00
54546;BME280;40444;45.184;9.850;2022-08-19T00:24:27;100218.44;;;20.99;100.00
54546;BME280;40444;45.184;9.850;2022-08-19T00:26:57;100222.41;;;20.97;100.00
54546;BME280;40444;45.184;9.850;2022-08-19T00:29:46;100234.31;;;21.02;100.00
54546;BME280;40444;45.184;9.850;2022-08-19T00:32:19;100234.97;;;21.04;100.00
54546;BME280;40444;45.184;9.850;2022-08-19T00:34:48;100221.94;;;21.06;100.00
54546;BME280;40444;45.184;9.850;2022-08-19T00:37:16;100210.00;;;21.07;100.00
54546;BME280;40444;45.184;9.850;2022-08-19T00:39:46;100214.63;;;21.07;100.00
54546;BME280;40444;45.184;9.850;2022-08-19T00:42:15;100201.00;;;21.07;100.00
54546;BME280;40444;45.184;9.850;2022-08-19T00:44:44;100194.94;;;21.05;100.00
54546;BME280;40444;45.184;9.850;2022-08-19T00:47:13;100193.47;;;21.02;100.00
54546;BME280;40444;45.184;9.850;2022-08-19T00:49:51;100198.31;;;21.00;100.00
54546;BME280;40444;45.184;9.850;2022-08-19T00:52:27;100183.22;;;20.98;100.00
54546;BME280;40444;45.184;9.850;2022-08-19T00:55:00;100182.38;;;20.97;100.00
54546;BME280;40444;45.184;9.850;2022-08-19T00:57:36;100173.19;;;20.91;100.00
54546;BME280;40444;45.184;9.850;2022-08-19T01:00:09;100171.53;;;20.90;100.00
54546;BME280;40444;45.184;9.850;2022-08-19T01:02:41;100169.00;;;20.89;100.00
54546;BME280;40444;45.184;9.850;2022-08-19T01:05:14;100169.88;;;20.89;100.00
54546;BME280;40444;45.184;9.850;2022-08-19T01:07:43;100170.28;;;20.86;100.00
54546;BME280;40444;45.184;9.850;2022-08-19T01:10:15;100179.28;;;20.87;100.00
54546;BME280;40444;45.184;9.850;2022-08-19T01:12:47;100180.97;;;20.88;100.00
54546;BME280;40444;45.184;9.850;2022-08-19T01:15:21;100178.88;;;20.83;100.00
54546;BME280;40444;45.184;9.850;2022-08-19T01:17:51;100178.06;;;20.83;100.00
54546;BME280;40444;45.184;9.850;2022-08-19T01:20:21;100187.06;;;20.83;100.00
54546;BME280;40444;45.184;9.850;2022-08-19T01:22:56;100184.09;;;20.85;100.00
54546;BME280;40444;45.184;9.850;2022-08-19T01:25:41;100178.47;;;20.86;100.00
54546;BME280;40444;45.184;9.850;2022-08-19T01:28:24;100166.09;;;20.84;100.00
54546;BME280;40444;45.184;9.850;2022-08-19T01:31:08;100174.91;;;20.86;100.00
54546;BME280;40444;45.184;9.850;2022-08-19T01:33:56;100177.41;;;20.87;100.00
54546;BME280;40444;45.184;9.850;2022-08-19T01:36:41;100173.47;;;20.77;100.00
54546;BME280;40444;45.184;9.850;2022-08-19T01:39:16;100175.38;;;20.76;100.00
54546;BME280;40444;45.184;9.850;2022-08-19T01:41:46;100176.63;;;20.74;100.00
54546;BME280;40444;45.184;9.850;2022-08-19T01:44:16;100173.06;;;20.73;100.00
54546;BME280;40444;45.184;9.850;2022-08-19T01:46:48;100168.03;;;20.70;100.00
54546;BME280;40444;45.184;9.850;2022-08-19T01:49:20;100166.16;;;20.70;100.00
54546;BME280;40444;45.184;9.850;2022-08-19T01:51:49;100163.41;;;20.70;100.00
54546;BME280;40444;45.184;9.850;2022-08-19T01:54:19;100164.06;;;20.66;100.00
54546;BME280;40444;45.184;9.850;2022-08-19T01:56:59;100167.22;;;20.63;100.00
54546;BME280;40444;45.184;9.850;2022-08-19T01:59:30;100168.47;;;20.60;100.00
54546;BME280;40444;45.184;9.850;2022-08-19T02:01:59;100161.19;;;20.54;100.00
54546;BME280;40444;45.184;9.850;2022-08-19T02:04:27;100149.66;;;20.45;100.00
54546;BME280;40444;45.184;9.850;2022-08-19T02:06:57;100143.59;;;20.37;100.00
54546;BME280;40444;45.184;9.850;2022-08-19T02:09:26;100157.19;;;20.43;100.00
54546;BME280;40444;45.184;9.850;2022-08-19T02:11:54;100166.00;;;20.52;100.00
54546;BME280;40444;45.184;9.850;2022-08-19T02:14:22;100157.59;;;20.60;100.00
54546;BME280;40444;45.184;9.850;2022-08-19T02:16:51;100152.97;;;20.67;100.00
54546;BME280;40444;45.184;9.850;2022-08-19T02:19:19;100150.44;;;20.73;100.00
54546;BME280;40444;45.184;9.850;2022-08-19T02:21:48;100162.59;;;20.77;100.00
54546;BME280;40444;45.184;9.850;2022-08-19T02:24:17;100169.06;;;20.76;100.00
54546;BME280;40444;45.184;9.850;2022-08-19T02:26:45;100154.69;;;20.55;100.00
54546;BME280;40444;45.184;9.850;2022-08-19T02:29:13;100154.69;;;20.49;100.00
54546;BME280;40444;45.184;9.850;2022-08-19T02:31:42;100157.00;;;20.52;100.00
54546;BME280;40444;45.184;9.850;2022-08-19T02:34:11;100145.50;;;20.50;100.00
54546;BME280;40444;45.184;9.850;2022-08-19T02:36:39;100133.75;;;20.49;100.00
54546;BME280;40444;45.184;9.850;2022-08-19T02:39:09;100134.00;;;20.28;100.00
54546;BME280;40444;45.184;9.850;2022-08-19T02:41:38;100144.25;;;20.32;100.00
54546;BME280;40444;45.184;9.850;2022-08-19T02:44:07;100143.16;;;20.40;100.00
54546;BME280;40444;45.184;9.850;2022-08-19T02:46:56;100162.63;;;20.43;100.00
54546;BME280;40444;45.184;9.850;2022-08-19T02:49:24;100158.03;;;20.31;100.00
54546;BME280;40444;45.184;9.850;2022-08-19T02:51:52;100139.00;;;20.31;100.00
54546;BME280;40444;45.184;9.850;2022-08-19T02:54:22;100130.63;;;20.32;100.00
54546;BME280;40444;45.184;9.850;2022-08-19T02:56:51;100129.16;;;20.30;100.00
54546;BME280;40444;45.184;9.850;2022-08-19T02:59:20;100139.00;;;20.37;100.00
54546;BME280;40444;45.184;9.850;2022-08-19T03:01:49;100153.00;;;20.34;100.00
54546;BME280;40444;45.184;9.850;2022-08-19T03:04:18;100159.91;;;20.30;100.00
54546;BME280;40444;45.184;9.850;2022-08-19T03:06:48;100162.00;;;20.35;100.00
54546;BME280;40444;45.184;9.850;2022-08-19T03:09:18;100160.53;;;20.39;100.00
54546;BME280;40444;45.184;9.850;2022-08-19T03:11:47;100156.56;;;20.41;100.00
54546;BME280;40444;45.184;9.850;2022-08-19T03:14:19;100180.03;;;20.29;100.00
54546;BME280;40444;45.184;9.850;2022-08-19T03:16:50;100186.94;;;19.92;100.00
54546;BME280;40444;45.184;9.850;2022-08-19T03:19:19;100168.75;;;20.06;100.00
54546;BME280;40444;45.184;9.850;2022-08-19T03:21:50;100155.75;;;20.21;100.00
54546;BME280;40444;45.184;9.850;2022-08-19T03:24:20;100178.78;;;20.25;100.00
54546;BME280;40444;45.184;9.850;2022-08-19T03:26:54;100199.72;;;20.18;100.00
54546;BME280;40444;45.184;9.850;2022-08-19T03:29:28;100205.13;;;20.25;100.00
54546;BME280;40444;45.184;9.850;2022-08-19T03:32:00;100213.72;;;20.28;100.00
54546;BME280;40444;45.184;9.850;2022-08-19T03:34:32;100228.16;;;20.35;100.00
54546;BME280;40444;45.184;9.850;2022-08-19T03:37:10;100232.56;;;20.36;100.00
54546;BME280;40444;45.184;9.850;2022-08-19T03:39:42;100235.91;;;20.38;100.00
54546;BME280;40444;45.184;9.850;2022-08-19T03:42:11;100242.38;;;20.37;100.00
54546;BME280;40444;45.184;9.850;2022-08-19T03:45:00;100251.16;;;20.39;100.00
54546;BME280;40444;45.184;9.850;2022-08-19T03:47:29;100259.97;;;20.41;100.00
54546;BME280;40444;45.184;9.850;2022-08-19T03:49:58;100266.03;;;20.43;100.00
54546;BME280;40444;45.184;9.850;2022-08-19T03:52:27;100278.00;;;20.49;100.00
54546;BME280;40444;45.184;9.850;2022-08-19T03:54:55;100278.63;;;20.51;100.00
54546;BME280;40444;45.184;9.850;2022-08-19T03:57:24;100272.53;;;20.49;100.00
54546;BME280;40444;45.184;9.850;2022-08-19T03:59:58;100260.81;;;20.49;100.00
54546;BME280;40444;45.184;9.850;2022-08-19T04:02:41;100239.47;;;20.45;100.00
54546;BME280;40444;45.184;9.850;2022-08-19T04:05:27;100226.25;;;20.42;100.00
54546;BME280;40444;45.184;9.850;2022-08-19T04:07:56;100208.28;;;20.22;100.00
54546;BME280;40444;45.184;9.850;2022-08-19T04:10:27;100212.03;;;20.20;100.00
54546;BME280;40444;45.184;9.850;2022-08-19T04:12:56;100205.75;;;20.27;100.00
54546;BME280;40444;45.184;9.850;2022-08-19T04:15:25;100204.28;;;20.31;100.00
54546;BME280;40444;45.184;9.850;2022-08-19T04:17:53;100216.22;;;20.36;100.00
54546;BME280;40444;45.184;9.850;2022-08-19T04:20:22;100222.06;;;20.40;100.00
54546;BME280;40444;45.184;9.850;2022-08-19T04:22:50;100234.44;;;20.42;100.00
54546;BME280;40444;45.184;9.850;2022-08-19T04:25:19;100254.97;;;20.45;100.00
54546;BME280;40444;45.184;9.850;2022-08-19T04:27:47;100269.41;;;20.45;100.00
54546;BME280;40444;45.184;9.850;2022-08-19T04:30:16;100281.31;;;20.44;100.00
54546;BME280;40444;45.184;9.850;2022-08-19T04:32:45;100299.97;;;20.48;100.00
54546;BME280;40444;45.184;9.850;2022-08-19T04:35:14;100309.41;;;20.52;100.00
54546;BME280;40444;45.184;9.850;2022-08-19T04:37:44;100299.34;;;20.52;100.00
54546;BME280;40444;45.184;9.850;2022-08-19T04:40:13;100309.00;;;20.55;100.00
54546;BME280;40444;45.184;9.850;2022-08-19T04:42:59;100302.50;;;20.56;100.00
54546;BME280;40444;45.184;9.850;2022-08-19T04:45:29;100311.66;;;20.15;100.00
54546;BME280;40444;45.184;9.850;2022-08-19T04:48:11;100313.97;;;20.25;100.00
54546;BME280;40444;45.184;9.850;2022-08-19T04:50:55;100321.50;;;20.29;100.00
54546;BME280;40444;45.184;9.850;2022-08-19T04:53:29;100327.94;;;20.08;100.00
54546;BME280;40444;45.184;9.850;2022-08-19T04:56:09;100333.16;;;19.97;100.00
54546;BME280;40444;45.184;9.850;2022-08-19T04:58:40;100346.38;;;20.06;100.00
54546;BME280;40444;45.184;9.850;2022-08-19T05:01:17;100343.81;;;19.98;100.00
54546;BME280;40444;45.184;9.850;2022-08-19T05:03:46;100345.69;;;19.91;100.00
54546;BME280;40444;45.184;9.850;2022-08-19T05:06:17;100339.84;;;19.87;100.00
54546;BME280;40444;45.184;9.850;2022-08-19T05:08:46;100348.94;;;19.66;100.00
54546;BME280;40444;45.184;9.850;2022-08-19T05:11:18;100360.22;;;19.63;100.00
54546;BME280;40444;45.184;9.850;2022-08-19T05:13:53;100339.94;;;19.25;100.00
54546;BME280;40444;45.184;9.850;2022-08-19T19:29:43;100403.31;;;24.24;87.43
54546;BME280;40444;45.184;9.850;2022-08-19T19:32:24;100406.16;;;24.29;85.72
54546;BME280;40444;45.184;9.850;2022-08-19T19:34:54;100411.56;;;24.35;85.19
54546;BME280;40444;45.184;9.850;2022-08-19T19:37:22;100418.53;;;24.38;86.19
54546;BME280;40444;45.184;9.850;2022-08-19T19:39:51;100421.03;;;24.39;85.72
54546;BME280;40444;45.184;9.850;2022-08-19T19:42:21;100423.75;;;24.39;84.81
54546;BME280;40444;45.184;9.850;2022-08-19T19:44:52;100424.00;;;24.38;85.59
54546;BME280;40444;45.184;9.850;2022-08-19T19:47:22;100419.19;;;24.33;86.27
54546;BME280;40444;45.184;9.850;2022-08-19T19:49:53;100427.03;;;24.30;87.51
54546;BME280;40444;45.184;9.850;2022-08-19T19:52:43;100427.25;;;24.28;88.04
54546;BME280;40444;45.184;9.850;2022-08-19T19:55:13;100428.56;;;24.26;88.02
54546;BME280;40444;45.184;9.850;2022-08-19T19:57:48;100431.50;;;24.24;87.26
54546;BME280;40444;45.184;9.850;2022-08-19T20:00:16;100427.94;;;24.24;86.84
54546;BME280;40444;45.184;9.850;2022-08-19T20:02:47;100431.38;;;24.19;86.41
54546;BME280;40444;45.184;9.850;2022-08-19T20:05:18;100435.28;;;24.11;86.29
54546;BME280;40444;45.184;9.850;2022-08-19T20:07:51;100436.19;;;24.05;86.37
54546;BME280;40444;45.184;9.850;2022-08-19T20:10:40;100437.19;;;23.92;87.89
54546;BME280;40444;45.184;9.850;2022-08-19T20:13:10;100437.81;;;23.94;86.67
54546;BME280;40444;45.184;9.850;2022-08-19T20:15:38;100444.81;;;23.90;86.70
54546;BME280;40444;45.184;9.850;2022-08-19T20:18:10;100442.75;;;23.86;86.69
54546;BME280;40444;45.184;9.850;2022-08-19T20:20:41;100450.13;;;23.85;87.25
54546;BME280;40444;45.184;9.850;2022-08-19T20:23:10;100454.13;;;23.83;87.53
54546;BME280;40444;45.184;9.850;2022-08-19T20:25:38;100448.66;;;23.83;87.48
54546;BME280;40444;45.184;9.850;2022-08-19T20:28:08;100453.47;;;23.87;87.94
54546;BME280;40444;45.184;9.850;2022-08-19T20:30:37;100458.72;;;23.89;88.12
54546;BME280;40444;45.184;9.850;2022-08-19T20:33:11;100451.94;;;23.91;88.25
54546;BME280;40444;45.184;9.850;2022-08-19T20:35:41;100451.34;;;23.89;88.60
54546;BME280;40444;45.184;9.850;2022-08-19T20:38:11;100464.41;;;23.87;88.78
54546;BME280;40444;45.184;9.850;2022-08-19T20:40:40;100459.75;;;23.88;88.34
54546;BME280;40444;45.184;9.850;2022-08-19T20:43:10;100457.25;;;23.86;88.02
54546;BME280;40444;45.184;9.850;2022-08-19T20:45:40;100456.50;;;23.79;88.01
54546;BME280;40444;45.184;9.850;2022-08-19T20:48:08;100450.88;;;23.74;88.14
54546;BME280;40444;45.184;9.850;2022-08-19T20:50:39;100446.22;;;23.75;89.14
54546;BME280;40444;45.184;9.850;2022-08-19T20:53:13;100451.09;;;23.73;89.49
54546;BME280;40444;45.184;9.850;2022-08-19T20:55:43;100446.47;;;23.73;90.10
54546;BME280;40444;45.184;9.850;2022-08-19T20:58:12;100450.03;;;23.74;90.11
54546;BME280;40444;45.184;9.850;2022-08-19T21:00:42;100447.97;;;23.69;90.76
54546;BME280;40444;45.184;9.850;2022-08-19T21:03:18;100459.59;;;23.64;90.86
54546;BME280;40444;45.184;9.850;2022-08-19T21:05:46;100453.72;;;23.61;91.43
54546;BME280;40444;45.184;9.850;2022-08-19T21:08:15;100462.41;;;23.58;92.24
54546;BME280;40444;45.184;9.850;2022-08-19T21:10:48;100463.06;;;23.53;93.02
54546;BME280;40444;45.184;9.850;2022-08-19T21:13:17;100454.47;;;23.50;92.75
54546;BME280;40444;45.184;9.850;2022-08-19T21:15:47;100456.81;;;23.46;91.69
54546;BME280;40444;45.184;9.850;2022-08-19T21:18:18;100460.63;;;23.45;91.37
54546;BME280;40444;45.184;9.850;2022-08-19T21:20:49;100464.44;;;23.44;90.77
54546;BME280;40444;45.184;9.850;2022-08-19T21:23:24;100465.25;;;23.44;90.24
54546;BME280;40444;45.184;9.850;2022-08-19T21:25:54;100467.16;;;23.44;90.66
54546;BME280;40444;45.184;9.850;2022-08-19T21:28:24;100463.81;;;23.42;91.38
54546;BME280;40444;45.184;9.850;2022-08-19T21:31:05;100467.38;;;23.42;91.02
54546;BME280;40444;45.184;9.850;2022-08-19T21:33:33;100468.88;;;23.38;91.26
54546;BME280;40444;45.184;9.850;2022-08-19T21:36:03;100468.94;;;23.32;91.15
54546;BME280;40444;45.184;9.850;2022-08-19T21:38:32;100464.16;;;23.27;92.05
54546;BME280;40444;45.184;9.850;2022-08-19T21:41:02;100478.03;;;23.26;92.26
54546;BME280;40444;45.184;9.850;2022-08-19T21:43:36;100479.53;;;23.21;91.36
54546;BME280;40444;45.184;9.850;2022-08-19T21:46:07;100481.22;;;23.23;91.52
54546;BME280;40444;45.184;9.850;2022-08-19T21:48:36;100485.63;;;23.24;91.84
54546;BME280;40444;45.184;9.850;2022-08-19T21:51:04;100489.44;;;23.23;92.54
54546;BME280;40444;45.184;9.850;2022-08-19T21:53:33;100482.50;;;23.20;93.02
54546;BME280;40444;45.184;9.850;2022-08-19T21:56:03;100490.94;;;23.18;93.13
54546;BME280;40444;45.184;9.850;2022-08-19T21:58:34;100488.88;;;23.14;93.45
54546;BME280;40444;45.184;9.850;2022-08-19T22:01:06;100490.13;;;23.11;93.42
54546;BME280;40444;45.184;9.850;2022-08-19T22:03:36;100497.06;;;23.14;93.40
54546;BME280;40444;45.184;9.850;2022-08-19T22:06:05;100485.97;;;23.09;94.03
54546;BME280;40444;45.184;9.850;2022-08-19T22:08:37;100481.53;;;23.08;93.83
54546;BME280;40444;45.184;9.850;2022-08-19T22:11:08;100485.75;;;23.10;93.46
54546;BME280;40444;45.184;9.850;2022-08-19T22:13:39;100474.81;;;23.10;93.32
54546;BME280;40444;45.184;9.850;2022-08-19T22:16:08;100478.81;;;23.08;93.47
54546;BME280;40444;45.184;9.850;2022-08-19T22:18:37;100482.59;;;23.07;93.44
54546;BME280;40444;45.184;9.850;2022-08-19T22:21:06;100482.44;;;23.02;93.97
54546;BME280;40444;45.184;9.850;2022-08-19T22:23:40;100493.38;;;23.02;94.09
54546;BME280;40444;45.184;9.850;2022-08-19T22:26:10;100486.25;;;23.01;93.73
54546;BME280;40444;45.184;9.850;2022-08-19T22:28:39;100484.34;;;23.01;93.70
54546;BME280;40444;45.184;9.850;2022-08-19T22:31:09;100483.72;;;22.99;94.00
54546;BME280;40444;45.184;9.850;2022-08-19T22:33:39;100483.72;;;22.99;93.42
54546;BME280;40444;45.184;9.850;2022-08-19T22:36:08;100485.59;;;22.99;93.69
54546;BME280;40444;45.184;9.850;2022-08-19T22:38:36;100484.78;;;22.98;93.81
54546;BME280;40444;45.184;9.850;2022-08-19T22:41:06;100488.34;;;22.99;94.35
54546;BME280;40444;45.184;9.850;2022-08-19T22:43:34;100490.47;;;22.97;94.85
54546;BME280;40444;45.184;9.850;2022-08-19T22:46:05;100491.53;;;22.95;95.34
54546;BME280;40444;45.184;9.850;2022-08-19T22:48:45;100482.50;;;22.95;95.30
54546;BME280;40444;45.184;9.850;2022-08-19T22:51:14;100485.25;;;22.95;95.61
54546;BME280;40444;45.184;9.850;2022-08-19T22:54:02;100483.78;;;22.92;95.52
54546;BME280;40444;45.184;9.850;2022-08-19T22:56:30;100483.78;;;22.92;95.31
54546;BME280;40444;45.184;9.850;2022-08-19T22:58:59;100482.72;;;22.93;95.42
54546;BME280;40444;45.184;9.850;2022-08-19T23:01:28;100479.97;;;22.93;95.16
54546;BME280;40444;45.184;9.850;2022-08-19T23:03:58;100477.72;;;22.90;95.12
54546;BME280;40444;45.184;9.850;2022-08-19T23:06:31;100476.22;;;22.88;94.37
54546;BME280;40444;45.184;9.850;2022-08-19T23:09:05;100483.59;;;22.81;94.07
54546;BME280;40444;45.184;9.850;2022-08-19T23:11:37;100475.03;;;22.77;93.56
54546;BME280;40444;45.184;9.850;2022-08-19T23:14:09;100471.06;;;22.73;93.53
54546;BME280;40444;45.184;9.850;2022-08-19T23:16:39;100470.25;;;22.66;93.88
54546;BME280;40444;45.184;9.850;2022-08-19T23:19:09;100468.38;;;22.66;93.92
54546;BME280;40444;45.184;9.850;2022-08-19T23:21:38;100462.50;;;22.63;94.19
54546;BME280;40444;45.184;9.850;2022-08-19T23:24:08;100462.13;;;22.59;94.19
54546;BME280;40444;45.184;9.850;2022-08-19T23:26:38;100454.78;;;22.60;93.62
54546;BME280;40444;45.184;9.850;2022-08-19T23:29:26;100455.19;;;22.57;93.77
54546;BME280;40444;45.184;9.850;2022-08-19T23:32:16;100460.69;;;22.50;93.90
54546;BME280;40444;45.184;9.850;2022-08-19T23:34:45;100461.16;;;22.47;94.06
54546;BME280;40444;45.184;9.850;2022-08-19T23:37:14;100464.31;;;22.44;93.87
54546;BME280;40444;45.184;9.850;2022-08-19T23:39:43;100457.81;;;22.38;94.40
54546;BME280;40444;45.184;9.850;2022-08-19T23:42:12;100472.75;;;22.36;94.75
54546;BME280;40444;45.184;9.850;2022-08-19T23:44:41;100472.56;;;22.31;95.28
54546;BME280;40444;45.184;9.850;2022-08-19T23:47:20;100480.34;;;22.27;95.71
54546;BME280;40444;45.184;9.850;2022-08-19T23:49:48;100489.59;;;22.26;96.33
54546;BME280;40444;45.184;9.850;2022-08-19T23:52:17;100485.19;;;22.25;96.09
54546;BME280;40444;45.184;9.850;2022-08-19T23:54:46;100487.09;;;22.25;96.04
54546;BME280;40444;45.184;9.850;2022-08-19T23:57:15;100487.94;;;22.18;96.32
54546;BME280;40444;45.184;9.850;2022-08-19T23:59:44;100489.63;;;22.19;96.29
